Portada
METAR-TAF:

METAR-TAF

Aeroports :

Medellín, Colòmbia

latitud: 06-13N, longitud: 075-36W, altitud: 1490 m

Observació

L'informe es va fer fa 1 hora i 8 minuts, a les 19:00 UTC
Vent 4 kt del Sud-Est
Temperatura 28°C
Humitat 48%
Pressió 1016 hPa
Visibilitat 10 km o més
Núvols disperses a una alçada de 3500 ft

METAR: SKMD 181900Z 14004KT 9999 SCT035 28/16 A2999

Hora: 15:08 (20:08 UTC)


TAF: manca

Observacions i pronòstics meteorològics de més de 4000 aeroports (METAR i TAF).

Les estacions disponibles són els punts grocs i vermells al mapa.

Posi el ratolí al punt desitjat per veure el nom de l'estació.

Feu clic per veure les observacions i els pronòstics meteorològics.

Per canviar el mapa: feu clic els botons verds amb una creu de color negre per apropar; al botó verd amb un guió per allunyar la imatge; o en les fletxes verdes per a mapes adjacents.


METAR-TAF: